Time;durP1;ratioP1;P1;durP2;ratioP2;P2;SDS_P1;SDS_P2;PMS_P1;PMS_P2;Temp;Humidity;BMP_temperature;BMP_pressure;BME280_temperature;BME280_humidity;BME280_pressure;Samples;Min_cycle;Max_cycle;Signal;HPM_P1;HPM_P2
2022/03/07 00:00:58;;;;;;;25.70;12.38;;;-3.80;95.00;;;;;;5091478;28;20027;-74
2022/03/07 00:03:25;;;;;;;21.98;11.32;;;-3.70;95.30;;;;;;5092246;28;20161;-75
2022/03/07 00:05:50;;;;;;;20.88;11.65;;;-3.80;95.30;;;;;;5092299;28;20020;-73
2022/03/07 00:08:16;;;;;;;22.65;12.15;;;-3.80;95.30;;;;;;5092356;28;20028;-74
2022/03/07 00:10:42;;;;;;;19.42;11.23;;;-3.80;95.50;;;;;;5092272;28;20073;-72
2022/03/07 00:13:07;;;;;;;24.10;11.05;;;-3.80;95.60;;;;;;5092358;28;20147;-73
2022/03/07 00:15:33;;;;;;;23.58;11.52;;;-3.80;95.60;;;;;;5092160;28;20085;-73
2022/03/07 00:17:58;;;;;;;21.58;12.38;;;-3.80;95.60;;;;;;5092232;28;20031;-73
2022/03/07 00:20:24;;;;;;;22.55;12.13;;;-3.80;95.70;;;;;;5092177;28;20787;-73
2022/03/07 00:22:50;;;;;;;19.88;11.05;;;-3.90;95.70;;;;;;5092193;28;20455;-74
2022/03/07 00:25:18;;;;;;;21.23;11.32;;;-3.90;95.70;;;;;;5092220;28;20495;-74
2022/03/07 00:27:44;;;;;;;24.77;12.40;;;-3.90;95.70;;;;;;5092162;28;20553;-75
2022/03/07 00:30:10;;;;;;;24.75;12.60;;;-3.90;95.80;;;;;;5091948;28;20020;-73
2022/03/07 00:32:36;;;;;;;22.48;11.38;;;-4.00;95.90;;;;;;5092078;28;20093;-74
2022/03/07 00:35:02;;;;;;;21.65;10.63;;;-4.00;96.00;;;;;;5091841;28;20020;-73
2022/03/07 00:37:28;;;;;;;26.45;12.73;;;-4.00;96.00;;;;;;5091447;28;20388;-74
2022/03/07 00:39:53;;;;;;;21.27;11.80;;;-4.00;96.00;;;;;;5090444;28;20032;-73
2022/03/07 00:42:19;;;;;;;19.95;11.90;;;-4.10;96.10;;;;;;5091845;28;20028;-73
2022/03/07 00:44:45;;;;;;;23.23;13.07;;;-4.10;96.50;;;;;;5091777;28;20044;-73
2022/03/07 00:47:11;;;;;;;22.50;12.60;;;-4.10;96.80;;;;;;5092001;28;20020;-74
2022/03/07 00:49:36;;;;;;;25.58;13.63;;;-4.10;96.70;;;;;;5091984;28;20032;-74
2022/03/07 00:52:02;;;;;;;22.85;12.45;;;-4.10;96.70;;;;;;5090562;28;20024;-73
2022/03/07 00:54:28;;;;;;;23.35;11.98;;;-4.10;96.90;;;;;;5091802;28;20100;-73
2022/03/07 00:56:53;;;;;;;25.00;12.98;;;-4.10;96.90;;;;;;5091823;28;20175;-73
2022/03/07 00:59:19;;;;;;;23.85;13.38;;;-4.10;97.00;;;;;;5091701;28;20053;-73
2022/03/07 01:01:45;;;;;;;25.80;11.85;;;-4.10;97.30;;;;;;5091713;28;20115;-74
2022/03/07 01:04:10;;;;;;;25.88;13.27;;;-4.10;97.30;;;;;;5091548;28;20027;-74
2022/03/07 01:06:36;;;;;;;25.05;12.70;;;-4.10;97.40;;;;;;5091496;28;20054;-74
2022/03/07 01:09:02;;;;;;;26.05;12.80;;;-4.20;97.50;;;;;;5090397;28;20035;-74
2022/03/07 01:11:28;;;;;;;25.52;13.60;;;-4.10;97.60;;;;;;5090361;28;20032;-74
2022/03/07 01:13:53;;;;;;;27.20;13.30;;;-4.20;97.80;;;;;;5091615;28;20047;-73
2022/03/07 01:16:19;;;;;;;31.50;13.38;;;-4.10;97.60;;;;;;5091565;28;20111;-73
2022/03/07 01:18:45;;;;;;;25.33;12.98;;;-4.10;97.50;;;;;;5091579;28;20051;-74
2022/03/07 01:21:12;;;;;;;24.92;12.63;;;-4.10;97.60;;;;;;5091598;28;20077;-74
2022/03/07 01:23:38;;;;;;;28.55;13.38;;;-4.20;97.70;;;;;;5091659;28;20044;-74
2022/03/07 01:26:04;;;;;;;22.52;11.40;;;-4.20;97.80;;;;;;5091554;28;20056;-73
2022/03/07 01:28:29;;;;;;;21.58;12.57;;;-4.20;98.00;;;;;;5091573;28;20021;-73
2022/03/07 01:30:55;;;;;;;22.63;11.82;;;-4.30;98.20;;;;;;5091674;28;20036;-74
2022/03/07 01:33:20;;;;;;;23.15;12.48;;;-4.30;98.30;;;;;;5091838;28;20106;-73
2022/03/07 01:35:46;;;;;;;22.88;13.27;;;-4.30;98.30;;;;;;5095075;28;20028;-73
2022/03/07 01:38:12;;;;;;;26.52;12.50;;;-4.30;98.60;;;;;;5095049;28;20455;-73
2022/03/07 01:40:37;;;;;;;23.27;14.18;;;-4.30;98.60;;;;;;5095036;28;20024;-74
2022/03/07 01:43:06;;;;;;;21.95;12.38;;;-4.30;98.70;;;;;;5094930;28;20135;-73
2022/03/07 01:45:31;;;;;;;22.58;12.98;;;-4.30;98.70;;;;;;5094836;28;20024;-73
2022/03/07 01:47:57;;;;;;;28.65;12.88;;;-4.30;98.70;;;;;;5094946;28;20107;-72
2022/03/07 01:50:23;;;;;;;23.90;12.90;;;-4.30;98.60;;;;;;5093316;28;20023;-73
2022/03/07 01:52:52;;;;;;;28.25;15.10;;;-4.30;98.70;;;;;;5094953;28;20036;-74
2022/03/07 01:55:18;;;;;;;30.02;13.63;;;-4.30;99.10;;;;;;5094555;28;20016;-73
2022/03/07 01:57:45;;;;;;;30.00;14.55;;;-4.30;99.50;;;;;;5093457;28;20464;-74
2022/03/07 02:00:18;;;;;;;29.30;13.93;;;-4.40;99.70;;;;;;5094790;28;20016;-74
2022/03/07 02:02:44;;;;;;;33.78;16.38;;;-4.40;99.90;;;;;;5093359;28;20379;-73
2022/03/07 02:05:10;;;;;;;30.92;15.48;;;-4.30;99.90;;;;;;5094693;28;20755;-74
2022/03/07 02:07:39;;;;;;;28.05;13.25;;;-4.40;99.90;;;;;;5094475;28;20111;-73
2022/03/07 02:10:08;;;;;;;27.20;13.27;;;-4.40;99.90;;;;;;5094628;28;20058;-74
2022/03/07 02:12:34;;;;;;;29.98;13.35;;;-4.50;99.90;;;;;;5094592;28;20042;-73
2022/03/07 02:15:00;;;;;;;27.60;14.35;;;-4.50;99.90;;;;;;5093435;28;20395;-73
2022/03/07 02:17:25;;;;;;;30.70;14.50;;;-4.50;99.90;;;;;;5094504;28;20042;-74
2022/03/07 02:19:51;;;;;;;24.13;13.50;;;-4.50;99.90;;;;;;5094185;28;20471;-73
2022/03/07 02:22:17;;;;;;;22.20;12.07;;;-4.50;99.90;;;;;;5094293;28;20077;-74
2022/03/07 02:24:44;;;;;;;25.58;13.43;;;-4.50;99.90;;;;;;5094377;28;20027;-74
2022/03/07 02:27:11;;;;;;;25.20;12.70;;;-4.50;99.90;;;;;;5094328;28;20073;-73
2022/03/07 02:29:37;;;;;;;29.38;12.98;;;-4.60;99.90;;;;;;5092974;28;20364;-74
2022/03/07 02:32:05;;;;;;;25.40;12.05;;;-4.60;99.90;;;;;;5094014;28;20425;-74
2022/03/07 02:34:31;;;;;;;22.95;12.80;;;-4.60;99.90;;;;;;5092934;28;20475;-74
2022/03/07 02:36:56;;;;;;;31.83;14.57;;;-4.60;99.90;;;;;;5094162;28;20044;-74
2022/03/07 02:39:23;;;;;;;26.45;12.57;;;-4.60;99.90;;;;;;5093869;28;20115;-74
2022/03/07 02:41:48;;;;;;;26.88;13.13;;;-4.60;99.90;;;;;;5093928;28;20031;-73
2022/03/07 02:44:14;;;;;;;33.33;13.50;;;-4.60;99.90;;;;;;5093519;28;20008;-74
2022/03/07 02:46:41;;;;;;;29.02;13.73;;;-4.60;99.90;;;;;;5092840;28;20085;-74
2022/03/07 02:49:07;;;;;;;28.52;14.85;;;-4.60;99.90;;;;;;5093789;28;20019;-74
2022/03/07 02:51:34;;;;;;;28.85;14.30;;;-4.60;99.90;;;;;;5093822;28;20024;-74
2022/03/07 02:54:00;;;;;;;29.20;15.23;;;-4.60;99.90;;;;;;5093490;28;20058;-74
2022/03/07 02:56:25;;;;;;;28.90;16.00;;;-4.60;99.90;;;;;;5093346;28;20111;-73
2022/03/07 02:58:51;;;;;;;26.92;12.70;;;-4.60;99.90;;;;;;5093570;28;20472;-74
2022/03/07 03:01:17;;;;;;;27.90;14.63;;;-4.60;99.90;;;;;;5093431;28;20095;-74
2022/03/07 03:03:42;;;;;;;33.20;13.52;;;-4.50;99.90;;;;;;5093455;28;20187;-73
2022/03/07 03:06:09;;;;;;;22.08;13.20;;;-4.50;99.90;;;;;;5093652;28;20032;-74
2022/03/07 03:08:35;;;;;;;25.77;12.82;;;-4.60;99.90;;;;;;5093356;28;20008;-75
2022/03/07 03:11:01;;;;;;;27.00;14.48;;;-4.60;99.90;;;;;;5092072;28;20024;-73
2022/03/07 03:13:27;;;;;;;25.63;12.75;;;-4.60;99.90;;;;;;5093416;28;20022;-74
2022/03/07 03:15:54;;;;;;;25.38;13.80;;;-4.60;99.90;;;;;;5091830;28;20149;-73
2022/03/07 03:18:20;;;;;;;25.88;12.63;;;-4.70;99.90;;;;;;5093127;28;20035;-73
2022/03/07 03:20:48;;;;;;;25.52;14.23;;;-4.60;99.90;;;;;;5092976;28;20076;-74
2022/03/07 03:23:15;;;;;;;27.90;13.10;;;-4.60;99.90;;;;;;5093234;28;20421;-73
2022/03/07 03:25:40;;;;;;;24.60;12.90;;;-4.60;99.90;;;;;;5093170;28;20020;-73
2022/03/07 03:28:06;;;;;;;30.88;14.35;;;-4.60;99.90;;;;;;5091837;28;20021;-74
2022/03/07 03:30:32;;;;;;;30.52;13.52;;;-4.50;99.90;;;;;;5092994;28;20024;-74
2022/03/07 03:32:58;;;;;;;25.98;12.95;;;-4.50;99.90;;;;;;5092592;28;20052;-74
2022/03/07 03:35:24;;;;;;;27.17;13.13;;;-4.40;99.90;;;;;;5091626;28;20516;-74
2022/03/07 03:37:50;;;;;;;27.48;13.38;;;-4.30;99.90;;;;;;5092856;28;20068;-75
2022/03/07 03:40:16;;;;;;;25.20;12.88;;;-4.30;99.90;;;;;;5091537;28;20024;-73
2022/03/07 03:42:41;;;;;;;26.65;12.70;;;-4.30;99.90;;;;;;5092771;28;20024;-74
2022/03/07 03:45:08;;;;;;;26.50;12.93;;;-4.20;99.90;;;;;;5091088;28;20020;-74
2022/03/07 03:47:42;;;;;;;23.52;13.82;;;-4.20;99.90;;;;;;5092776;28;20467;-75
2022/03/07 03:50:10;;;;;;;31.75;12.10;;;-4.20;99.90;;;;;;5092867;28;20067;-75
2022/03/07 03:52:37;;;;;;;23.75;12.15;;;-4.20;99.90;;;;;;5093044;28;20463;-74
2022/03/07 03:55:04;;;;;;;24.17;13.15;;;-4.10;99.90;;;;;;5092789;28;20020;-76
2022/03/07 03:57:30;;;;;;;24.02;12.27;;;-4.00;99.90;;;;;;5092639;28;20062;-74
2022/03/07 03:59:56;;;;;;;26.33;12.68;;;-4.00;99.90;;;;;;5093110;28;20063;-75
2022/03/07 04:02:22;;;;;;;26.63;12.70;;;-4.00;99.90;;;;;;5092860;28;20016;-74
2022/03/07 04:04:48;;;;;;;27.65;13.45;;;-4.10;99.90;;;;;;5092706;28;20021;-74
2022/03/07 04:07:14;;;;;;;28.05;12.60;;;-4.00;99.90;;;;;;5092298;28;20020;-74
2022/03/07 04:09:40;;;;;;;20.48;11.55;;;-4.00;99.90;;;;;;5091191;28;20051;-75
2022/03/07 04:12:06;;;;;;;26.35;12.38;;;-4.00;99.90;;;;;;5091242;28;20027;-74
2022/03/07 04:14:32;;;;;;;21.05;12.07;;;-4.00;99.90;;;;;;5092453;28;20022;-74
2022/03/07 04:16:58;;;;;;;23.33;12.43;;;-4.00;99.90;;;;;;5091368;28;20146;-73
2022/03/07 04:19:24;;;;;;;24.77;12.73;;;-4.00;99.90;;;;;;5092225;28;20020;-75
2022/03/07 04:21:49;;;;;;;29.13;12.90;;;-4.00;99.90;;;;;;5092362;28;20024;-74
2022/03/07 04:24:15;;;;;;;26.30;13.20;;;-3.90;99.90;;;;;;5092366;28;20537;-75
2022/03/07 04:26:42;;;;;;;22.80;11.02;;;-3.90;99.90;;;;;;5092442;28;20102;-74
2022/03/07 04:29:08;;;;;;;21.58;11.35;;;-3.90;99.90;;;;;;5092391;28;20028;-78
2022/03/07 04:31:44;;;;;;;20.27;11.35;;;-3.90;99.90;;;;;;5090505;28;20058;-74
2022/03/07 04:34:12;;;;;;;31.10;12.75;;;-3.80;99.90;;;;;;5091448;28;20374;-74
2022/03/07 04:36:40;;;;;;;24.35;12.32;;;-3.70;99.90;;;;;;5092062;28;20079;-75
2022/03/07 04:39:07;;;;;;;26.50;13.13;;;-3.70;99.90;;;;;;5092131;28;20074;-75
2022/03/07 04:41:33;;;;;;;23.92;13.15;;;-3.60;99.90;;;;;;5092106;28;20030;-74
2022/03/07 04:44:00;;;;;;;21.67;11.48;;;-3.60;99.90;;;;;;5091941;28;20367;-74
2022/03/07 04:46:26;;;;;;;21.23;10.73;;;-3.60;99.90;;;;;;5090615;28;20111;-74
2022/03/07 04:48:51;;;;;;;23.08;12.20;;;-3.50;99.90;;;;;;5091955;28;20430;-74
2022/03/07 04:51:17;;;;;;;23.25;11.43;;;-3.50;99.90;;;;;;5091924;28;20510;-74
2022/03/07 04:53:43;;;;;;;25.92;12.40;;;-3.40;99.90;;;;;;5091957;28;20744;-74
2022/03/07 04:56:09;;;;;;;26.77;12.65;;;-3.40;99.90;;;;;;5091881;28;20070;-75
2022/03/07 04:58:35;;;;;;;25.13;12.98;;;-3.40;99.90;;;;;;5092051;28;20452;-74
2022/03/07 05:01:01;;;;;;;25.52;12.25;;;-3.40;99.90;;;;;;5091765;28;20024;-75
2022/03/07 05:03:27;;;;;;;24.63;11.75;;;-3.50;99.90;;;;;;5091877;28;20022;-74
2022/03/07 05:05:53;;;;;;;30.60;12.40;;;-3.50;99.90;;;;;;5091699;28;20020;-74
2022/03/07 05:08:18;;;;;;;24.55;12.35;;;-3.40;99.90;;;;;;5092216;28;20024;-74
2022/03/07 05:10:44;;;;;;;25.67;11.93;;;-3.40;99.90;;;;;;5094512;28;20024;-75
2022/03/07 05:13:10;;;;;;;26.48;12.65;;;-3.40;99.90;;;;;;5095752;28;20039;-74
2022/03/07 05:15:36;;;;;;;23.55;13.25;;;-3.40;99.90;;;;;;5094130;28;20103;-74
2022/03/07 05:18:02;;;;;;;25.50;12.80;;;-3.30;99.90;;;;;;5095661;28;20048;-74
2022/03/07 05:20:28;;;;;;;27.20;13.82;;;-3.30;99.90;;;;;;5095669;28;20016;-75
2022/03/07 05:22:54;;;;;;;24.20;12.15;;;-3.30;99.90;;;;;;5095629;28;20023;-74
2022/03/07 05:25:20;;;;;;;27.58;13.73;;;-3.30;99.90;;;;;;5095638;28;20070;-74
2022/03/07 05:27:47;;;;;;;25.40;12.57;;;-3.30;99.90;;;;;;5094024;28;20023;-74
2022/03/07 05:30:16;;;;;;;31.50;13.73;;;-3.20;99.90;;;;;;5095521;28;20069;-75
2022/03/07 05:32:46;;;;;;;27.33;13.93;;;-3.30;99.90;;;;;;5093846;28;20055;-78
2022/03/07 05:35:13;;;;;;;28.92;14.23;;;-3.20;99.90;;;;;;5095214;28;20030;-75
2022/03/07 05:37:39;;;;;;;25.30;12.82;;;-3.20;99.90;;;;;;5095282;28;20040;-74
2022/03/07 05:40:07;;;;;;;27.70;14.88;;;-3.20;99.90;;;;;;5095121;28;20074;-75
2022/03/07 05:42:37;;;;;;;25.38;13.40;;;-3.20;99.90;;;;;;5095271;28;20059;-74
2022/03/07 05:45:05;;;;;;;26.20;14.35;;;-3.20;99.90;;;;;;5094841;28;20048;-74
2022/03/07 05:47:31;;;;;;;30.35;14.30;;;-3.10;99.90;;;;;;5095376;28;20024;-74
2022/03/07 05:49:57;;;;;;;25.08;14.20;;;-3.10;99.90;;;;;;5095045;28;20459;-74
2022/03/07 05:52:23;;;;;;;24.15;13.65;;;-3.10;99.90;;;;;;5093499;28;20371;-74
2022/03/07 05:54:49;;;;;;;24.80;12.40;;;-3.10;99.90;;;;;;5094974;28;20483;-73
2022/03/07 05:57:15;;;;;;;24.42;11.32;;;-3.00;99.90;;;;;;5094905;28;20040;-75
2022/03/07 05:59:40;;;;;;;25.10;12.45;;;-2.90;99.90;;;;;;5094546;28;20031;-74
2022/03/07 06:02:06;;;;;;;24.83;12.55;;;-2.60;99.90;;;;;;5094748;28;20028;-74
2022/03/07 06:04:31;;;;;;;21.60;13.00;;;-2.60;99.30;;;;;;5095763;28;20046;-81
2022/03/07 06:06:57;;;;;;;21.35;12.63;;;-2.70;98.50;;;;;;5095722;28;20036;-75
2022/03/07 06:09:23;;;;;;;24.73;12.95;;;-2.70;98.30;;;;;;5100735;28;20085;-76
2022/03/07 06:11:49;;;;;;;25.45;14.50;;;-2.70;98.40;;;;;;5094822;28;20020;-74
2022/03/07 06:14:15;;;;;;;30.85;14.70;;;-2.70;98.60;;;;;;5094758;28;20055;-74
2022/03/07 06:16:40;;;;;;;25.35;14.35;;;-2.60;98.90;;;;;;5094536;28;20046;-76
2022/03/07 06:19:06;;;;;;;27.60;13.70;;;-2.60;99.00;;;;;;5094269;28;20016;-74
2022/03/07 06:21:32;;;;;;;28.48;14.93;;;-2.50;98.90;;;;;;5094635;28;20024;-75
2022/03/07 06:23:57;;;;;;;23.95;13.57;;;-2.50;98.70;;;;;;5094469;28;20068;-75
2022/03/07 06:26:24;;;;;;;30.88;14.82;;;-2.40;98.70;;;;;;5094340;28;20035;-76
2022/03/07 06:28:50;;;;;;;29.05;15.15;;;-2.40;98.90;;;;;;5094285;28;20016;-74
2022/03/07 06:31:16;;;;;;;26.52;14.10;;;-2.40;98.70;;;;;;5094097;28;20056;-73
2022/03/07 06:33:41;;;;;;;27.70;14.35;;;-2.40;98.70;;;;;;5094289;28;20463;-75
2022/03/07 06:36:08;;;;;;;27.55;13.80;;;-2.30;98.50;;;;;;5094078;28;20028;-74
2022/03/07 06:38:34;;;;;;;27.52;14.50;;;-2.20;98.30;;;;;;5094102;28;20429;-74
2022/03/07 06:40:59;;;;;;;29.65;14.63;;;-2.20;97.80;;;;;;5092923;28;20028;-74
2022/03/07 06:43:25;;;;;;;24.42;13.77;;;-2.20;97.60;;;;;;5094226;28;20020;-75
2022/03/07 06:45:52;;;;;;;28.20;14.48;;;-2.10;97.30;;;;;;5094050;28;20035;-74
2022/03/07 06:48:18;;;;;;;28.60;13.85;;;-2.00;97.20;;;;;;5094070;28;20031;-74
2022/03/07 06:50:44;;;;;;;23.73;14.13;;;-2.00;97.00;;;;;;5094197;28;20020;-74
2022/03/07 06:53:09;;;;;;;25.13;14.55;;;-2.00;96.70;;;;;;5093920;28;21111;-75
2022/03/07 06:55:35;;;;;;;29.42;15.23;;;-1.90;96.40;;;;;;5092727;28;20092;-74
2022/03/07 06:58:01;;;;;;;27.67;13.35;;;-1.90;96.30;;;;;;5094064;28;20055;-73
2022/03/07 07:00:27;;;;;;;28.65;13.05;;;-1.90;96.40;;;;;;5095441;28;20028;-79
2022/03/07 07:02:52;;;;;;;26.17;13.95;;;-1.80;96.50;;;;;;5093319;28;20020;-82
2022/03/07 07:05:18;;;;;;;26.98;14.38;;;-1.90;96.50;;;;;;5094112;28;20047;-81
2022/03/07 07:07:44;;;;;;;27.35;14.73;;;-1.80;96.40;;;;;;5096494;28;20048;-79
2022/03/07 07:10:11;;;;;;;25.17;12.60;;;-1.70;96.40;;;;;;5093568;28;20032;-79
2022/03/07 07:12:37;;;;;;;24.42;11.70;;;-1.70;96.30;;;;;;5092025;28;20032;-77
2022/03/07 07:15:06;;;;;;;25.35;13.35;;;-1.60;96.40;;;;;;5093757;28;20031;-77
2022/03/07 07:17:31;;;;;;;24.38;12.27;;;-1.60;96.40;;;;;;5093709;28;20432;-78
2022/03/07 07:19:57;;;;;;;26.00;13.43;;;-1.50;96.60;;;;;;5093720;28;20020;-76
2022/03/07 07:22:23;;;;;;;30.67;13.60;;;-1.40;96.60;;;;;;5093598;28;20375;-79
2022/03/07 07:24:48;;;;;;;30.75;13.80;;;-1.30;96.30;;;;;;5092284;28;20364;-79
2022/03/07 07:27:14;;;;;;;27.60;15.30;;;-1.30;96.10;;;;;;5092434;28;20375;-78
2022/03/07 07:29:40;;;;;;;27.40;14.40;;;-1.20;95.70;;;;;;5092885;28;20087;-79
2022/03/07 07:32:06;;;;;;;30.85;12.63;;;-1.10;95.60;;;;;;5092332;28;20040;-80
2022/03/07 07:34:32;;;;;;;26.63;15.30;;;-0.90;95.40;;;;;;5091673;28;20026;-78
2022/03/07 07:36:59;;;;;;;29.45;14.25;;;-0.90;94.80;;;;;;5091920;28;20127;-77
2022/03/07 07:39:24;;;;;;;28.20;15.20;;;-0.80;94.60;;;;;;5093250;28;20082;-80
2022/03/07 07:41:50;;;;;;;27.88;13.13;;;-0.80;94.70;;;;;;5091479;28;20024;-77
2022/03/07 07:44:16;;;;;;;30.48;14.63;;;-0.70;94.70;;;;;;5092791;28;20020;-79
2022/03/07 07:46:42;;;;;;;26.80;13.35;;;-0.70;94.80;;;;;;5093524;28;20063;-81
2022/03/07 07:49:08;;;;;;;27.05;14.15;;;-0.60;94.40;;;;;;5093924;28;20012;-80
2022/03/07 07:51:34;;;;;;;37.13;15.88;;;-0.60;94.10;;;;;;5092707;28;20089;-79
2022/03/07 07:54:00;;;;;;;27.25;14.73;;;-0.50;94.10;;;;;;5094004;28;20515;-80
2022/03/07 07:56:26;;;;;;;25.30;13.93;;;-0.40;94.10;;;;;;5092719;28;20044;-81
2022/03/07 07:58:52;;;;;;;26.65;12.77;;;-0.30;93.80;;;;;;5092913;28;20090;-82
2022/03/07 08:01:18;;;;;;;23.48;14.35;;;0.20;98.70;;;;;;5093498;28;20517;-82
2022/03/07 08:03:44;;;;;;;27.13;15.57;;;1.10;96.50;;;;;;5093491;28;20028;-79
2022/03/07 08:06:10;;;;;;;38.92;19.10;;;2.20;93.30;;;;;;5108974;28;20027;-82
2022/03/07 08:08:35;;;;;;;30.83;18.20;;;2.40;84.70;;;;;;5109976;28;20020;-82
2022/03/07 08:11:01;;;;;;;27.95;15.10;;;2.10;81.80;;;;;;5109864;28;20028;-82
2022/03/07 08:13:27;;;;;;;30.15;16.60;;;1.90;82.40;;;;;;5107133;28;20036;-81
2022/03/07 08:15:52;;;;;;;30.38;15.82;;;1.60;81.30;;;;;;5093851;28;20028;-80
2022/03/07 08:18:18;;;;;;;29.27;16.63;;;1.30;80.30;;;;;;5092741;28;20059;-79
2022/03/07 08:20:44;;;;;;;29.50;16.63;;;1.20;80.20;;;;;;5092220;28;20012;-82
2022/03/07 08:23:10;;;;;;;32.50;16.73;;;1.20;80.00;;;;;;5091867;28;20038;-76
2022/03/07 08:25:35;;;;;;;33.30;17.25;;;1.60;91.00;;;;;;5093021;28;20012;-78
2022/03/07 08:28:01;;;;;;;32.60;16.98;;;1.90;79.40;;;;;;5094963;28;20027;-77
2022/03/07 08:30:28;;;;;;;27.60;16.33;;;1.80;76.00;;;;;;5094972;28;20050;-75
2022/03/07 08:32:57;;;;;;;27.02;16.13;;;1.80;76.20;;;;;;5093354;28;20040;-75
2022/03/07 08:35:23;;;;;;;30.42;16.40;;;1.70;75.50;;;;;;5096875;28;20024;-74
2022/03/07 08:37:52;;;;;;;27.42;16.20;;;1.70;75.10;;;;;;5096988;28;20040;-74
2022/03/07 08:40:21;;;;;;;23.95;14.63;;;1.70;75.00;;;;;;5097124;28;20080;-76
2022/03/07 08:42:48;;;;;;;28.58;15.63;;;1.70;74.40;;;;;;5096007;28;20028;-75
2022/03/07 08:45:13;;;;;;;33.83;13.60;;;1.80;74.10;;;;;;5096976;28;20119;-76
2022/03/07 08:47:40;;;;;;;25.90;14.98;;;1.80;72.50;;;;;;5098085;28;20467;-75
2022/03/07 08:50:08;;;;;;;27.67;14.48;;;1.80;72.70;;;;;;5098047;28;20077;-77
2022/03/07 08:52:35;;;;;;;31.73;16.83;;;1.90;72.30;;;;;;5097291;28;20016;-75
2022/03/07 08:55:01;;;;;;;31.23;15.85;;;2.00;72.00;;;;;;5096688;28;20024;-75
2022/03/07 08:57:27;;;;;;;27.95;14.65;;;1.80;70.30;;;;;;5096826;28;20537;-77
2022/03/07 08:59:53;;;;;;;23.15;13.60;;;2.00;69.10;;;;;;5095789;28;20099;-77
2022/03/07 09:02:19;;;;;;;27.35;14.98;;;1.90;71.30;;;;;;5096925;28;20045;-76
2022/03/07 09:04:45;;;;;;;30.75;14.98;;;1.80;71.70;;;;;;5096619;28;20020;-78
2022/03/07 09:07:11;;;;;;;24.27;13.07;;;1.90;71.50;;;;;;5096347;28;20502;-78
2022/03/07 09:09:37;;;;;;;21.67;12.45;;;2.00;70.70;;;;;;5096398;28;20019;-77
2022/03/07 09:12:04;;;;;;;23.42;14.30;;;2.00;69.90;;;;;;5096312;28;20028;-76
2022/03/07 09:14:30;;;;;;;23.85;14.55;;;2.10;69.80;;;;;;5096584;28;20020;-78
2022/03/07 09:16:56;;;;;;;22.38;13.50;;;2.10;69.90;;;;;;5094901;28;20039;-79
2022/03/07 09:19:22;;;;;;;25.40;13.25;;;2.10;68.90;;;;;;5095172;28;20059;-80
2022/03/07 09:21:48;;;;;;;28.50;14.95;;;2.20;69.10;;;;;;5095005;28;20056;-78
2022/03/07 09:24:14;;;;;;;21.70;13.50;;;2.40;69.00;;;;;;5096258;28;20440;-78
2022/03/07 09:26:39;;;;;;;22.85;13.55;;;2.10;67.00;;;;;;5095116;28;20024;-78
2022/03/07 09:29:05;;;;;;;21.08;12.23;;;2.50;66.50;;;;;;5096274;28;20099;-80
2022/03/07 09:31:31;;;;;;;22.58;14.00;;;2.50;66.40;;;;;;5096092;28;20048;-80
2022/03/07 09:33:57;;;;;;;35.60;20.65;;;2.60;66.70;;;;;;5095156;28;20035;-80
2022/03/07 09:36:22;;;;;;;18.55;11.35;;;2.70;65.90;;;;;;5096092;28;20047;-76
2022/03/07 09:38:50;;;;;;;19.35;12.20;;;3.40;64.40;;;;;;5097192;28;20024;-77
2022/03/07 09:41:17;;;;;;;20.33;11.75;;;2.70;63.90;;;;;;5098264;28;20023;-80
2022/03/07 09:43:44;;;;;;;18.13;12.10;;;2.90;64.30;;;;;;5099446;28;20020;-79
2022/03/07 09:46:09;;;;;;;15.60;12.45;;;3.50;64.10;;;;;;5099761;28;20074;-78
2022/03/07 09:48:35;;;;;;;15.98;10.98;;;3.00;62.90;;;;;;5099765;28;20032;-78
2022/03/07 09:51:02;;;;;;;18.92;10.50;;;2.70;61.40;;;;;;5100877;28;20035;-76
2022/03/07 09:53:28;;;;;;;20.23;11.82;;;2.90;62.30;;;;;;5098675;28;20028;-76
2022/03/07 09:55:53;;;;;;;22.40;12.60;;;3.40;62.50;;;;;;5096434;28;20554;-76
2022/03/07 09:58:19;;;;;;;23.38;14.63;;;3.10;61.80;;;;;;5098268;28;20044;-75
2022/03/07 10:00:45;;;;;;;17.33;10.60;;;2.90;61.30;;;;;;5096344;28;20061;-78
2022/03/07 10:03:14;;;;;;;27.02;13.63;;;4.20;62.40;;;;;;5096496;28;20020;-77
2022/03/07 10:05:45;;;;;;;21.60;12.88;;;2.70;60.70;;;;;;5097065;28;20017;-73
2022/03/07 10:08:28;;;;;;;20.00;10.48;;;3.10;60.80;;;;;;5096179;28;20037;-74
2022/03/07 10:10:55;;;;;;;16.52;10.70;;;3.30;61.50;;;;;;5095438;28;20023;-76
2022/03/07 10:13:22;;;;;;;16.58;10.55;;;3.40;60.60;;;;;;5096389;28;20092;-77
2022/03/07 10:15:57;;;;;;;15.73;10.40;;;2.80;60.60;;;;;;5096030;28;20529;-78
2022/03/07 10:18:24;;;;;;;16.92;9.73;;;3.20;61.40;;;;;;5097868;28;20024;-75
2022/03/07 10:20:53;;;;;;;17.27;10.15;;;3.90;61.60;;;;;;5097237;28;20024;-77
2022/03/07 10:23:19;;;;;;;15.70;10.05;;;3.30;61.40;;;;;;5096833;28;20024;-77
2022/03/07 10:25:50;;;;;;;15.48;10.85;;;3.50;61.40;;;;;;5100524;28;20023;-78
2022/03/07 10:28:17;;;;;;;22.45;12.32;;;3.40;60.80;;;;;;5100447;28;20028;-79
2022/03/07 10:30:47;;;;;;;20.95;12.32;;;3.30;62.90;;;;;;5098022;28;20024;-76
2022/03/07 10:33:14;;;;;;;20.27;12.38;;;3.20;64.10;;;;;;5097388;28;20044;-75
2022/03/07 10:35:49;;;;;;;36.13;18.08;;;3.00;64.60;;;;;;5097783;28;20016;-75
2022/03/07 10:38:20;;;;;;;24.20;13.63;;;3.10;65.30;;;;;;5097743;28;20043;-75
2022/03/07 10:40:52;;;;;;;18.50;13.25;;;2.80;65.00;;;;;;5096758;28;20032;-76
2022/03/07 10:43:19;;;;;;;23.23;14.05;;;3.60;66.30;;;;;;5097005;28;20107;-75
2022/03/07 10:45:53;;;;;;;19.25;12.60;;;2.80;66.70;;;;;;5097512;28;20017;-77
2022/03/07 10:48:20;;;;;;;25.58;14.02;;;2.80;66.10;;;;;;5095689;28;20360;-78
2022/03/07 10:50:53;;;;;;;17.45;12.30;;;2.90;66.20;;;;;;5095843;28;20066;-75
2022/03/07 10:53:19;;;;;;;25.38;13.90;;;3.00;66.80;;;;;;5095689;28;20028;-74
2022/03/07 10:55:56;;;;;;;22.77;13.93;;;3.10;66.00;;;;;;5095720;28;20020;-75
2022/03/07 10:58:23;;;;;;;18.27;12.45;;;3.20;65.60;;;;;;5094735;28;20036;-78
2022/03/07 11:00:54;;;;;;;19.85;12.98;;;3.80;65.60;;;;;;5094802;28;20024;-76
2022/03/07 11:03:29;;;;;;;19.95;13.20;;;3.50;64.60;;;;;;5093452;28;20020;-74
2022/03/07 11:05:55;;;;;;;24.48;13.10;;;3.60;64.80;;;;;;5092875;28;20025;-75
2022/03/07 11:08:22;;;;;;;21.88;12.02;;;3.60;63.60;;;;;;5092447;28;20054;-75
2022/03/07 11:10:53;;;;;;;20.88;12.63;;;3.60;63.70;;;;;;5092376;28;20865;-74
2022/03/07 11:13:26;;;;;;;18.25;11.93;;;3.90;63.10;;;;;;5093871;28;20032;-78
2022/03/07 11:15:55;;;;;;;16.83;11.52;;;3.90;62.30;;;;;;5093433;28;20039;-75
2022/03/07 11:18:22;;;;;;;16.63;10.88;;;3.90;63.20;;;;;;5093595;28;20020;-76
2022/03/07 11:20:48;;;;;;;16.73;10.13;;;3.90;61.40;;;;;;5093725;28;20027;-79
2022/03/07 11:23:20;;;;;;;17.38;11.43;;;4.30;63.20;;;;;;5093426;28;20522;-76
2022/03/07 11:25:48;;;;;;;23.45;11.88;;;4.20;62.70;;;;;;5093241;28;20020;-76
2022/03/07 11:28:14;;;;;;;18.77;11.85;;;4.00;60.70;;;;;;5093673;28;20591;-76
2022/03/07 11:30:43;;;;;;;18.55;11.55;;;3.70;59.90;;;;;;5093676;28;20031;-75
2022/03/07 11:33:09;;;;;;;19.42;11.80;;;3.80;60.50;;;;;;5092992;28;20047;-76
2022/03/07 11:35:35;;;;;;;18.38;11.65;;;3.70;60.30;;;;;;5093172;28;20079;-75
2022/03/07 11:38:19;;;;;;;17.00;11.13;;;3.90;60.10;;;;;;5092918;28;20103;-76
2022/03/07 11:41:06;;;;;;;19.88;11.48;;;4.00;60.10;;;;;;5093549;28;20031;-75
2022/03/07 11:43:35;;;;;;;19.23;11.02;;;4.20;59.70;;;;;;5093121;28;20048;-75
2022/03/07 11:46:05;;;;;;;20.88;11.95;;;4.10;59.80;;;;;;5092933;28;20463;-75
2022/03/07 11:48:44;;;;;;;19.08;11.70;;;4.10;58.90;;;;;;5093342;28;20116;-74
2022/03/07 11:51:21;;;;;;;14.65;10.00;;;4.50;59.00;;;;;;5092840;28;20059;-77
2022/03/07 11:53:47;;;;;;;18.67;11.75;;;4.20;58.80;;;;;;5093143;28;20024;-76
2022/03/07 11:56:22;;;;;;;16.70;11.00;;;4.20;59.00;;;;;;5091239;28;20059;-75
2022/03/07 11:58:50;;;;;;;15.43;10.55;;;4.40;58.70;;;;;;5092885;28;20081;-77
2022/03/07 12:01:17;;;;;;;16.65;10.43;;;4.50;57.70;;;;;;5092943;28;20428;-76
2022/03/07 12:03:43;;;;;;;17.63;10.93;;;4.60;56.90;;;;;;5092304;28;20024;-78
2022/03/07 12:06:11;;;;;;;17.33;11.13;;;4.60;56.70;;;;;;5091269;28;20096;-75
2022/03/07 12:08:43;;;;;;;11.57;8.23;;;4.80;55.30;;;;;;5092804;28;20020;-74
2022/03/07 12:11:10;;;;;;;16.02;8.07;;;4.60;52.70;;;;;;5092369;28;20048;-76
2022/03/07 12:13:48;;;;;;;14.73;8.25;;;4.60;51.80;;;;;;5091787;28;20020;-75
2022/03/07 12:16:29;;;;;;;13.15;9.00;;;4.60;51.20;;;;;;5074749;28;20131;-75
2022/03/07 12:19:16;;;;;;;17.08;7.85;;;4.70;52.20;;;;;;5091435;28;20027;-78
2022/03/07 12:21:44;;;;;;;13.15;8.60;;;4.80;51.90;;;;;;5091597;28;20028;-76
2022/03/07 12:24:13;;;;;;;12.93;8.30;;;4.80;50.90;;;;;;5091384;28;20406;-80
2022/03/07 12:26:52;;;;;;;12.80;8.50;;;4.90;52.80;;;;;;5091759;28;20048;-79
2022/03/07 12:29:20;;;;;;;12.43;8.10;;;4.90;51.10;;;;;;5092088;28;20038;-79